Time;durP1;ratioP1;P1;durP2;ratioP2;P2;SDS_P1;SDS_P2;PMS_P1;PMS_P2;Temp;Humidity;BMP_temperature;BMP_pressure;BME280_temperature;BME280_humidity;BME280_pressure;Samples;Min_cycle;Max_cycle;Signal;HPM_P1;HPM_P2
2023/06/15 00:01:15;;;;;;;8.70;7.70;;;;;;;13.90;85.21;100596.23;79015;278;3027646;-72
2023/06/15 00:03:52;;;;;;;9.50;7.40;;;;;;;14.00;85.30;100594.52;78949;277;3027173;-72
2023/06/15 00:06:28;;;;;;;8.20;7.50;;;;;;;14.06;85.28;100592.13;78965;278;3028006;-73
2023/06/15 00:09:04;;;;;;;9.00;7.60;;;;;;;14.11;85.49;100593.46;78952;277;3026996;-72
2023/06/15 00:11:39;;;;;;;7.80;7.10;;;;;;;14.13;85.30;100588.46;78994;278;3026781;-72
2023/06/15 00:14:16;;;;;;;10.20;7.30;;;;;;;14.12;85.23;100580.05;78962;277;3027553;-74
2023/06/15 00:16:54;;;;;;;8.80;6.70;;;;;;;14.16;85.24;100578.48;78971;266;3028618;-74
2023/06/15 00:19:30;;;;;;;8.70;7.60;;;;;;;14.16;85.11;100569.55;78934;277;3028509;-74
2023/06/15 00:22:09;;;;;;;9.10;7.60;;;;;;;14.15;85.18;100565.54;79693;278;3011542;-73
2023/06/15 00:24:45;;;;;;;8.00;7.00;;;;;;;14.11;85.01;100563.29;78950;266;3027177;-73
2023/06/15 00:27:20;;;;;;;8.10;6.60;;;;;;;14.09;85.25;100558.83;78891;277;3028147;-74
2023/06/15 00:29:56;;;;;;;7.10;6.40;;;;;;;14.09;85.41;100558.11;79673;278;3011573;-74
2023/06/15 00:32:32;;;;;;;8.10;6.20;;;;;;;14.09;85.49;100561.45;79004;277;3028419;-71
2023/06/15 00:35:12;;;;;;;8.10;6.40;;;;;;;14.12;85.56;100565.36;79735;277;3011490;-73
2023/06/15 00:37:48;;;;;;;7.60;6.80;;;;;;;14.13;85.78;100569.14;78987;277;3026719;-74
2023/06/15 00:40:23;;;;;;;8.60;7.10;;;;;;;14.15;85.91;100572.18;78966;278;3027668;-72
2023/06/15 00:42:59;;;;;;;7.20;6.30;;;;;;;14.17;85.88;100573.68;79028;278;3027842;-74
2023/06/15 00:45:34;;;;;;;9.60;7.30;;;;;;;14.17;85.60;100568.05;79039;277;3027402;-73
2023/06/15 00:48:11;;;;;;;7.10;6.40;;;;;;;14.14;85.50;100563.66;79723;277;3011482;-72
2023/06/15 00:50:46;;;;;;;8.50;6.60;;;;;;;14.13;85.75;100562.46;79010;278;3030339;-74
2023/06/15 00:53:22;;;;;;;8.20;7.40;;;;;;;14.17;85.78;100558.78;78976;277;3026634;-74
2023/06/15 00:55:57;;;;;;;8.60;7.10;;;;;;;14.19;85.94;100560.61;79054;277;3027540;-74
2023/06/15 00:58:32;;;;;;;9.60;7.10;;;;;;;14.18;85.84;100561.36;78927;277;3027470;-74
2023/06/15 01:01:09;;;;;;;10.00;6.60;;;;;;;14.17;85.72;100560.34;79766;277;3011498;-75
2023/06/15 01:03:44;;;;;;;7.40;6.70;;;;;;;14.16;85.65;100554.25;78948;277;3029421;-74
2023/06/15 01:06:20;;;;;;;7.50;6.30;;;;;;;14.17;85.59;100550.38;78979;277;3028099;-74
2023/06/15 01:08:57;;;;;;;7.60;6.90;;;;;;;14.15;85.41;100552.89;78972;277;3028430;-74
2023/06/15 01:11:33;;;;;;;8.00;7.30;;;;;;;14.10;85.04;100559.65;79039;277;3028327;-74
2023/06/15 01:14:08;;;;;;;7.80;7.00;;;;;;;14.03;85.21;100562.64;79005;277;3027601;-73
2023/06/15 01:16:52;;;;;;;8.10;7.30;;;;;;;13.99;85.37;100568.60;78949;278;3028189;-74
2023/06/15 01:19:54;;;;;;;8.50;7.70;;;;;;;14.01;85.74;100563.98;79017;277;3027969;-74
2023/06/15 01:22:45;;;;;;;7.90;7.20;;;;;;;13.99;85.75;100566.71;79034;277;3027602;-75
2023/06/15 01:25:29;;;;;;;;;;;;;;;14.01;86.00;100570.11;79068;277;3028023;-74
2023/06/15 01:28:05;;;;;;;9.30;7.90;;;;;;;14.02;86.40;100570.75;78983;267;3027793;-75
2023/06/15 01:30:43;;;;;;;9.60;8.00;;;;;;;14.08;86.49;100574.48;79009;278;3026725;-75
2023/06/15 01:33:19;;;;;;;12.50;8.10;;;;;;;14.11;86.42;100574.14;79037;277;3026992;-75
2023/06/15 01:35:55;;;;;;;11.10;7.70;;;;;;;14.14;86.45;100578.39;79040;277;3027997;-75
2023/06/15 01:38:31;;;;;;;10.70;8.30;;;;;;;14.16;86.39;100575.12;78969;277;3027039;-75
2023/06/15 01:41:07;;;;;;;8.80;7.80;;;;;;;14.20;86.41;100569.31;79070;266;3027588;-73
2023/06/15 01:43:44;;;;;;;8.60;7.70;;;;;;;14.25;86.61;100572.76;79013;277;3027995;-73
2023/06/15 01:46:19;;;;;;;9.10;8.30;;;;;;;14.28;86.51;100568.91;78953;278;3026812;-74
2023/06/15 01:48:55;;;;;;;11.80;8.00;;;;;;;14.25;86.32;100569.45;78959;270;3029200;-72
2023/06/15 01:51:31;;;;;;;9.10;7.40;;;;;;;14.25;86.46;100568.95;79050;277;3026645;-72
2023/06/15 01:54:06;;;;;;;12.80;7.90;;;;;;;14.25;86.53;100571.02;78995;277;3027352;-71
2023/06/15 01:56:42;;;;;;;9.30;7.90;;;;;;;14.26;86.63;100564.48;79072;277;3027410;-73
2023/06/15 01:59:18;;;;;;;8.00;7.20;;;;;;;14.32;86.86;100563.46;78987;277;3028353;-73
2023/06/15 02:01:53;;;;;;;8.50;7.30;;;;;;;14.35;86.72;100561.40;79020;277;3027794;-75
2023/06/15 02:04:28;;;;;;;10.20;8.50;;;;;;;14.38;86.90;100559.13;78978;277;3026570;-74
2023/06/15 02:07:04;;;;;;;8.50;7.60;;;;;;;14.40;87.03;100557.77;79015;277;3028897;-75
2023/06/15 02:09:39;;;;;;;9.10;7.70;;;;;;;14.42;86.99;100550.82;78983;277;3027497;-75
2023/06/15 02:12:15;;;;;;;9.90;7.50;;;;;;;14.43;86.85;100543.56;78986;277;3027942;-70
2023/06/15 02:14:51;;;;;;;10.80;7.80;;;;;;;14.42;86.80;100545.38;78954;277;3027322;-72
2023/06/15 02:17:30;;;;;;;10.70;8.70;;;;;;;14.38;86.63;100547.04;78967;277;3027310;-74
2023/06/15 02:20:09;;;;;;;14.90;9.90;;;;;;;14.38;86.94;100548.44;78981;277;3026861;-74
2023/06/15 02:22:45;;;;;;;16.40;10.40;;;;;;;14.43;87.40;100549.01;78933;277;3026944;-73
2023/06/15 02:25:20;;;;;;;15.30;11.20;;;;;;;14.48;87.14;100548.64;78997;278;3027492;-72
2023/06/15 02:27:57;;;;;;;18.20;11.00;;;;;;;14.50;87.12;100557.71;79678;277;3011417;-72
2023/06/15 02:30:33;;;;;;;14.80;11.00;;;;;;;14.50;86.95;100556.80;78978;278;3029003;-72
2023/06/15 02:33:10;;;;;;;14.10;10.10;;;;;;;14.52;87.15;100559.87;78927;278;3027182;-72
2023/06/15 02:35:46;;;;;;;12.80;9.70;;;;;;;14.52;87.12;100559.52;79031;277;3026642;-73
2023/06/15 02:38:22;;;;;;;10.20;8.10;;;;;;;14.53;87.14;100561.05;78974;277;3027542;-71
2023/06/15 02:40:57;;;;;;;13.60;8.90;;;;;;;14.56;87.19;100560.34;78954;277;3026798;-72
2023/06/15 02:43:33;;;;;;;10.50;8.60;;;;;;;14.58;87.31;100557.23;78945;277;3027310;-73
2023/06/15 02:46:10;;;;;;;9.10;7.90;;;;;;;14.59;87.33;100561.96;78994;278;3027085;-73
2023/06/15 02:48:51;;;;;;;10.30;8.20;;;;;;;14.58;87.47;100561.48;78925;277;3027755;-73
2023/06/15 02:51:27;;;;;;;9.60;7.80;;;;;;;14.55;87.13;100567.08;78957;277;3027772;-74
2023/06/15 02:54:02;;;;;;;11.60;7.90;;;;;;;14.53;86.89;100570.53;78954;277;3027345;-75
2023/06/15 02:56:41;;;;;;;9.50;7.80;;;;;;;14.53;87.04;100564.88;78964;278;3029141;-73
2023/06/15 02:59:17;;;;;;;10.80;8.60;;;;;;;14.55;87.11;100565.13;78907;266;3026806;-73
2023/06/15 03:01:53;;;;;;;11.60;8.80;;;;;;;14.56;87.14;100565.58;78959;277;3026919;-74
2023/06/15 03:04:32;;;;;;;8.10;7.30;;;;;;;14.56;87.16;100572.61;79001;277;3026892;-74
2023/06/15 03:07:10;;;;;;;9.80;7.50;;;;;;;14.54;87.19;100572.92;79142;277;3027270;-74
2023/06/15 03:09:46;;;;;;;9.10;7.80;;;;;;;14.53;87.26;100570.35;78936;277;3026580;-74
2023/06/15 03:12:22;;;;;;;9.50;7.50;;;;;;;14.53;87.33;100570.14;78980;277;3028191;-73
2023/06/15 03:15:01;;;;;;;10.30;7.70;;;;;;;14.54;87.31;100571.71;78953;277;3027321;-73
2023/06/15 03:17:39;;;;;;;9.90;7.20;;;;;;;14.57;87.52;100572.55;78984;277;3028023;-72
2023/06/15 03:20:16;;;;;;;8.30;7.40;;;;;;;14.59;87.57;100572.48;79747;278;3011421;-73
2023/06/15 03:22:52;;;;;;;8.30;7.50;;;;;;;14.59;87.71;100569.67;78137;277;3027227;-74
2023/06/15 03:25:29;;;;;;;8.00;7.00;;;;;;;14.61;87.76;100565.66;78976;277;3028024;-74
2023/06/15 03:28:05;;;;;;;10.50;8.50;;;;;;;14.65;87.59;100566.19;78949;277;3028429;-73
2023/06/15 03:30:41;;;;;;;9.70;8.40;;;;;;;14.64;87.42;100559.20;78955;277;3028646;-74
2023/06/15 03:33:20;;;;;;;9.30;8.30;;;;;;;14.66;87.72;100559.83;78961;278;3027669;-72
2023/06/15 03:35:57;;;;;;;8.10;7.40;;;;;;;14.65;87.51;100560.42;79001;277;3027401;-74
2023/06/15 03:38:32;;;;;;;9.20;8.00;;;;;;;14.62;87.38;100559.66;78939;277;3027147;-75
2023/06/15 03:41:09;;;;;;;10.00;8.50;;;;;;;14.64;87.94;100555.16;79722;277;3011402;-74
2023/06/15 03:43:44;;;;;;;8.90;8.10;;;;;;;14.65;88.12;100554.60;78935;278;3027807;-75
2023/06/15 03:46:19;;;;;;;9.00;8.10;;;;;;;14.66;88.20;100551.73;78979;278;3029053;-74
2023/06/15 03:48:56;;;;;;;8.70;7.90;;;;;;;14.70;88.36;100549.45;79695;277;3011950;-73
2023/06/15 03:51:32;;;;;;;9.70;7.90;;;;;;;14.72;88.43;100547.91;79734;277;3011461;-74
2023/06/15 03:54:16;;;;;;;9.60;7.50;;;;;;;14.75;88.41;100548.11;79711;277;3011577;-72
2023/06/15 03:56:51;;;;;;;9.60;8.00;;;;;;;14.79;88.37;100550.55;78983;278;3028490;-74
2023/06/15 03:59:27;;;;;;;9.50;8.60;;;;;;;14.85;88.74;100551.61;78932;277;3028045;-74
2023/06/15 04:02:03;;;;;;;9.40;8.40;;;;;;;14.90;88.73;100555.23;79697;277;3011488;-74
2023/06/15 04:04:41;;;;;;;9.00;8.20;;;;;;;14.95;88.74;100559.50;79709;278;3011527;-74
2023/06/15 04:07:17;;;;;;;9.00;8.20;;;;;;;14.98;88.76;100558.33;78977;277;3027745;-74
2023/06/15 04:09:52;;;;;;;9.70;8.80;;;;;;;15.02;88.55;100553.89;78953;277;3027096;-74
2023/06/15 04:12:28;;;;;;;9.90;9.00;;;;;;;15.03;88.47;100554.34;78959;277;3028263;-74
2023/06/15 04:15:24;;;;;;;10.20;9.30;;;;;;;15.01;88.54;100551.86;78962;277;3027604;-73
2023/06/15 04:18:20;;;;;;;10.20;9.20;;;;;;;15.02;88.61;100553.73;78968;277;3028085;-73
2023/06/15 04:20:56;;;;;;;10.90;9.00;;;;;;;15.10;89.45;100551.33;78966;277;3028412;-72
2023/06/15 04:23:31;;;;;;;11.00;9.40;;;;;;;15.20;89.88;100548.67;78943;278;3028523;-73
2023/06/15 04:26:08;;;;;;;14.60;10.20;;;;;;;15.32;89.88;100555.23;78976;277;3027101;-73
2023/06/15 04:28:45;;;;;;;13.40;10.50;;;;;;;15.40;89.31;100551.30;78930;278;3026963;-73
2023/06/15 04:31:21;;;;;;;11.50;10.50;;;;;;;15.49;89.73;100552.05;79001;277;3027400;-74
2023/06/15 04:33:58;;;;;;;11.70;10.50;;;;;;;15.55;89.52;100552.39;78950;277;3027479;-74
2023/06/15 04:36:38;;;;;;;11.60;10.50;;;;;;;15.56;89.17;100556.76;78987;277;3027326;-74
2023/06/15 04:39:14;;;;;;;12.30;10.60;;;;;;;15.58;88.55;100559.77;78947;277;3027622;-75
2023/06/15 04:41:50;;;;;;;11.40;9.10;;;;;;;15.57;88.08;100560.88;78955;278;3027202;-74
2023/06/15 04:44:26;;;;;;;10.70;9.60;;;;;;;15.55;87.79;100562.77;78986;277;3027156;-73
2023/06/15 04:47:03;;;;;;;11.70;9.70;;;;;;;15.52;87.78;100565.57;79020;277;3028821;-74
2023/06/15 04:49:42;;;;;;;10.10;9.00;;;;;;;15.52;87.90;100563.29;78986;277;3028087;-74
2023/06/15 04:52:17;;;;;;;10.20;9.10;;;;;;;15.49;87.94;100559.73;78984;277;3027218;-73
2023/06/15 04:54:53;;;;;;;13.10;10.20;;;;;;;15.48;87.81;100560.70;78969;277;3028623;-72
2023/06/15 04:57:29;;;;;;;14.90;10.70;;;;;;;15.45;87.40;100561.73;79025;277;3028858;-71
2023/06/15 05:00:13;;;;;;;12.00;9.90;;;;;;;15.40;87.51;100554.61;78986;277;3027414;-72
2023/06/15 05:02:51;;;;;;;11.00;9.70;;;;;;;15.34;87.65;100556.17;79044;277;3026978;-71
2023/06/15 05:05:26;;;;;;;13.00;9.30;;;;;;;15.33;87.71;100559.56;79038;277;3026874;-72
2023/06/15 05:08:02;;;;;;;11.20;9.00;;;;;;;15.30;87.55;100563.98;79005;278;3028150;-77
2023/06/15 05:10:38;;;;;;;10.50;7.90;;;;;;;15.28;87.85;100561.09;79022;277;3026864;-73
2023/06/15 05:13:13;;;;;;;11.10;8.60;;;;;;;15.28;87.82;100563.03;78995;277;3027174;-74
2023/06/15 05:15:49;;;;;;;11.60;9.10;;;;;;;15.29;88.10;100560.50;78986;277;3028531;-74
2023/06/15 05:18:26;;;;;;;14.00;9.30;;;;;;;15.32;88.47;100558.25;78996;277;3027060;-72
2023/06/15 05:21:02;;;;;;;9.80;8.70;;;;;;;15.35;88.62;100554.36;79011;277;3026952;-71
2023/06/15 05:23:38;;;;;;;10.00;8.70;;;;;;;15.41;89.15;100555.96;78941;277;3028573;-71
2023/06/15 05:26:15;;;;;;;10.40;7.90;;;;;;;15.52;89.31;100565.42;78989;277;3028076;-74
2023/06/15 05:28:50;;;;;;;9.70;8.60;;;;;;;15.63;89.55;100570.42;78919;277;3027055;-72
2023/06/15 05:31:27;;;;;;;9.70;8.70;;;;;;;15.70;89.14;100572.13;78987;277;3026871;-74
2023/06/15 05:34:02;;;;;;;10.60;8.90;;;;;;;15.79;89.34;100582.23;78975;277;3027229;-74
2023/06/15 05:36:37;;;;;;;10.30;9.40;;;;;;;15.89;89.55;100585.00;78945;277;3027100;-74
2023/06/15 05:39:13;;;;;;;9.90;8.90;;;;;;;16.01;89.46;100586.08;78998;277;3027433;-73
2023/06/15 05:41:49;;;;;;;12.20;9.70;;;;;;;16.08;88.65;100588.30;79054;277;3027076;-74
2023/06/15 05:44:24;;;;;;;10.70;9.50;;;;;;;16.16;88.63;100588.75;79031;274;3027162;-75
2023/06/15 05:47:00;;;;;;;10.30;9.20;;;;;;;16.25;88.20;100582.71;79087;277;3026806;-74
2023/06/15 05:49:36;;;;;;;10.60;9.50;;;;;;;16.33;88.18;100583.69;79059;277;3027717;-74
2023/06/15 05:52:14;;;;;;;10.50;9.60;;;;;;;16.46;88.79;100583.95;78959;277;3027273;-74
2023/06/15 05:54:50;;;;;;;11.50;9.90;;;;;;;16.59;88.99;100588.29;79027;277;3027164;-75
2023/06/15 05:57:26;;;;;;;10.60;9.20;;;;;;;16.80;89.20;100584.29;79044;277;3028153;-74
2023/06/15 06:00:03;;;;;;;10.40;9.20;;;;;;;17.29;92.04;100580.38;78935;278;3029562;-74
2023/06/15 06:02:41;;;;;;;10.80;9.70;;;;;;;17.83;89.63;100575.74;78949;277;3027525;-74
2023/06/15 06:05:16;;;;;;;11.40;10.30;;;;;;;17.98;86.65;100577.34;78976;277;3027292;-74
2023/06/15 06:07:52;;;;;;;11.40;10.20;;;;;;;18.16;86.24;100578.13;79722;277;3011579;-74
2023/06/15 06:10:28;;;;;;;10.90;9.80;;;;;;;18.44;86.26;100576.83;78979;277;3028421;-74
2023/06/15 06:13:05;;;;;;;10.50;9.60;;;;;;;19.12;86.94;100574.04;79675;277;3011892;-74
2023/06/15 06:15:41;;;;;;;10.00;9.00;;;;;;;19.69;86.29;100572.67;79013;277;3027157;-74
2023/06/15 06:18:16;;;;;;;9.90;8.80;;;;;;;20.47;84.58;100573.22;78937;277;3027875;-75
2023/06/15 06:20:52;;;;;;;9.30;8.40;;;;;;;20.81;79.61;100569.04;79693;277;3011563;-75
2023/06/15 06:23:28;;;;;;;9.40;8.50;;;;;;;20.74;76.31;100575.60;78971;277;3027812;-75
2023/06/15 06:26:03;;;;;;;10.70;9.20;;;;;;;20.80;75.80;100577.07;78963;277;3026842;-75
2023/06/15 06:28:40;;;;;;;10.00;9.10;;;;;;;21.00;75.04;100579.10;79683;277;3011546;-75
2023/06/15 06:31:16;;;;;;;10.60;8.60;;;;;;;20.91;72.32;100585.11;79742;277;3011541;-75
2023/06/15 06:33:52;;;;;;;9.90;9.00;;;;;;;20.76;70.88;100588.40;79747;277;3011783;-75
2023/06/15 06:36:30;;;;;;;9.90;8.00;;;;;;;20.72;71.51;100590.65;79783;277;3012653;-79
2023/06/15 06:39:06;;;;;;;8.80;7.90;;;;;;;21.50;71.98;100586.27;79143;277;3030824;-79
2023/06/15 06:41:45;;;;;;;7.90;7.30;;;;;;;22.75;71.90;100583.41;79065;277;3027420;-75
2023/06/15 06:44:21;;;;;;;8.50;7.80;;;;;;;23.93;65.41;100587.29;79016;266;3027490;-75
2023/06/15 06:47:01;;;;;;;8.10;7.30;;;;;;;24.61;62.94;100586.22;78995;277;3026641;-76
2023/06/15 06:49:39;;;;;;;7.80;7.00;;;;;;;25.25;59.36;100586.74;78946;277;3027696;-77
2023/06/15 06:52:14;;;;;;;7.70;7.10;;;;;;;25.58;57.68;100588.61;79001;277;3028231;-73
2023/06/15 06:54:50;;;;;;;6.70;6.00;;;;;;;26.06;56.96;100584.98;78958;277;3028049;-73
2023/06/15 06:57:25;;;;;;;6.40;5.90;;;;;;;26.72;52.34;100581.64;78980;277;3027767;-74
2023/06/15 07:00:02;;;;;;;5.30;4.80;;;;;;;27.22;52.11;100577.91;78963;277;3027984;-74
2023/06/15 07:02:39;;;;;;;4.50;4.10;;;;;;;27.91;48.48;100574.73;78947;277;3026598;-73
2023/06/15 07:05:15;;;;;;;5.00;3.90;;;;;;;28.57;46.63;100575.02;79013;270;3027461;-73
2023/06/15 07:07:52;;;;;;;4.70;4.30;;;;;;;29.19;47.47;100571.53;78953;277;3027393;-73
2023/06/15 07:10:27;;;;;;;6.00;4.80;;;;;;;29.94;45.85;100570.80;78972;277;3026786;-74
2023/06/15 07:13:03;;;;;;;4.90;4.30;;;;;;;30.56;43.15;100570.31;78927;277;3028733;-74
2023/06/15 07:15:40;;;;;;;4.90;4.20;;;;;;;29.80;41.91;100575.29;78950;277;3026631;-75
2023/06/15 07:18:16;;;;;;;5.10;4.00;;;;;;;28.75;41.73;100585.09;78973;277;3026784;-75
2023/06/15 07:20:54;;;;;;;5.40;3.70;;;;;;;27.77;43.01;100580.98;78977;277;3028424;-75
2023/06/15 07:23:38;;;;;;;7.90;4.40;;;;;;;26.97;44.96;100580.48;78969;278;3026751;-75
2023/06/15 07:26:15;;;;;;;5.00;4.40;;;;;;;26.23;45.92;100578.17;78974;277;3027867;-73
2023/06/15 07:28:51;;;;;;;4.70;4.30;;;;;;;26.02;47.51;100573.36;78968;277;3027871;-74
2023/06/15 07:31:28;;;;;;;4.30;3.90;;;;;;;26.55;48.93;100569.05;79723;277;3012607;-74
2023/06/15 07:34:05;;;;;;;3.80;3.50;;;;;;;26.64;48.03;100571.22;78985;278;3027198;-73
2023/06/15 07:36:42;;;;;;;4.70;4.30;;;;;;;26.63;47.28;100568.48;78975;277;3027202;-73
2023/06/15 07:39:19;;;;;;;4.10;3.70;;;;;;;26.95;46.40;100568.92;78934;277;3026566;-73
2023/06/15 07:41:57;;;;;;;4.10;3.80;;;;;;;27.63;44.62;100570.16;78956;277;3029827;-74
2023/06/15 07:44:35;;;;;;;5.50;4.00;;;;;;;28.00;42.65;100570.65;78932;278;3027922;-72
2023/06/15 07:47:11;;;;;;;4.50;4.10;;;;;;;28.44;41.78;100570.02;78982;277;3027902;-74
2023/06/15 07:49:47;;;;;;;4.30;3.90;;;;;;;28.65;40.87;100573.96;78952;277;3028180;-72
2023/06/15 07:52:24;;;;;;;4.20;3.80;;;;;;;28.20;40.47;100575.84;79685;277;3011584;-72
2023/06/15 07:54:59;;;;;;;6.30;4.20;;;;;;;27.47;41.55;100573.12;78968;277;3027759;-72
2023/06/15 07:57:37;;;;;;;4.60;4.00;;;;;;;26.92;43.89;100570.88;78967;277;3028230;-72
2023/06/15 08:00:15;;;;;;;4.60;3.80;;;;;;;26.31;44.34;100572.35;78975;277;3028968;-72
2023/06/15 08:02:52;;;;;;;4.20;3.90;;;;;;;25.91;45.33;100575.70;78984;277;3027109;-72
2023/06/15 08:05:30;;;;;;;4.30;3.70;;;;;;;26.32;46.25;100575.65;78991;278;3027010;-72
2023/06/15 08:08:08;;;;;;;4.50;4.10;;;;;;;26.78;46.01;100573.02;78966;278;3026851;-72
2023/06/15 08:10:44;;;;;;;4.90;3.80;;;;;;;26.53;44.76;100575.19;78985;277;3027052;-73
2023/06/15 08:13:20;;;;;;;4.60;4.20;;;;;;;26.14;45.56;100574.67;78969;277;3027471;-77
2023/06/15 08:15:56;;;;;;;5.10;4.00;;;;;;;25.74;46.17;100576.67;78947;278;3027439;-77
2023/06/15 08:18:31;;;;;;;4.90;4.40;;;;;;;25.26;47.25;100570.80;78950;277;3027554;-78
2023/06/15 08:21:07;;;;;;;5.30;4.70;;;;;;;25.12;49.15;100569.09;78989;278;3028101;-77
2023/06/15 08:23:43;;;;;;;11.10;5.10;;;;;;;25.91;49.51;100565.09;78909;277;3027499;-77
2023/06/15 08:26:19;;;;;;;4.80;4.40;;;;;;;27.07;47.01;100557.08;79038;277;3028580;-79
2023/06/15 08:28:54;;;;;;;4.90;4.30;;;;;;;27.75;43.91;100556.58;79129;277;3027172;-79
2023/06/15 08:31:30;;;;;;;4.60;3.90;;;;;;;27.94;43.06;100558.11;79133;277;3028790;-78
2023/06/15 08:34:06;;;;;;;5.60;4.20;;;;;;;27.99;42.34;100560.36;78951;277;3027925;-76
2023/06/15 08:36:42;;;;;;;4.10;3.70;;;;;;;27.86;42.12;100557.85;79010;277;3026799;-78
2023/06/15 08:39:18;;;;;;;4.20;3.80;;;;;;;27.58;42.12;100562.77;79048;277;3027058;-78
2023/06/15 08:41:55;;;;;;;4.30;3.90;;;;;;;27.45;42.38;100563.23;79034;277;3027375;-77
2023/06/15 08:44:33;;;;;;;5.10;4.10;;;;;;;27.14;42.19;100564.61;78959;277;3027084;-77
2023/06/15 08:47:09;;;;;;;4.60;4.10;;;;;;;26.65;42.90;100561.81;78966;278;3028253;-78
2023/06/15 08:49:45;;;;;;;4.70;4.30;;;;;;;26.16;42.88;100560.70;78974;270;3028276;-76
2023/06/15 08:52:21;;;;;;;6.30;3.90;;;;;;;25.56;42.70;100554.42;78964;277;3027416;-77
2023/06/15 08:54:58;;;;;;;3.80;3.50;;;;;;;25.21;43.87;100554.34;78984;277;3026815;-77
2023/06/15 08:57:35;;;;;;;4.10;3.70;;;;;;;24.91;43.87;100550.23;78964;278;3027899;-78
2023/06/15 09:00:16;;;;;;;4.50;4.10;;;;;;;25.06;44.93;100548.08;78964;277;3028111;-77
2023/06/15 09:02:58;;;;;;;4.80;3.70;;;;;;;25.31;45.04;100545.64;78931;278;3027522;-76
2023/06/15 09:05:36;;;;;;;3.90;3.60;;;;;;;26.10;44.73;100540.19;78989;277;3027064;-77
2023/06/15 09:08:11;;;;;;;4.60;3.60;;;;;;;26.93;44.59;100543.30;78945;277;3026861;-78
2023/06/15 09:10:48;;;;;;;3.70;3.30;;;;;;;27.05;41.49;100541.50;79807;277;3012797;-76
2023/06/15 09:13:23;;;;;;;3.80;3.40;;;;;;;26.70;41.56;100548.39;78927;277;3028545;-75
2023/06/15 09:16:05;;;;;;;3.60;3.30;;;;;;;26.55;42.19;100542.48;78980;277;3027852;-75
2023/06/15 09:18:51;;;;;;;3.80;3.50;;;;;;;26.26;42.13;100546.20;79039;277;3027515;-75
2023/06/15 09:21:30;;;;;;;5.30;4.00;;;;;;;25.94;44.70;100549.63;79004;277;3027215;-76
2023/06/15 09:24:13;;;;;;;6.00;4.00;;;;;;;25.85;44.59;100544.41;78948;278;3027251;-76
2023/06/15 09:26:52;;;;;;;4.40;4.00;;;;;;;25.65;44.44;100546.66;79000;277;3026959;-75
2023/06/15 09:29:32;;;;;;;4.60;3.70;;;;;;;25.53;44.50;100542.94;78933;277;3027028;-75
2023/06/15 09:32:10;;;;;;;6.00;3.80;;;;;;;25.46;44.72;100539.02;78986;277;3027467;-78
2023/06/15 09:34:57;;;;;;;4.70;3.90;;;;;;;25.74;45.31;100537.34;78911;277;3028325;-77
2023/06/15 09:37:37;;;;;;;5.60;4.30;;;;;;;25.85;44.25;100536.96;78993;277;3026824;-76
2023/06/15 09:40:13;;;;;;;5.10;3.50;;;;;;;25.76;43.23;100539.65;79026;277;3027268;-76
2023/06/15 09:42:52;;;;;;;4.20;3.50;;;;;;;25.70;44.51;100536.59;78972;277;3027797;-78
2023/06/15 09:45:28;;;;;;;4.50;4.20;;;;;;;25.83;45.57;100536.04;78969;277;3028326;-76
2023/06/15 09:48:03;;;;;;;5.10;3.70;;;;;;;26.10;45.44;100536.80;78998;277;3029995;-76
2023/06/15 09:50:47;;;;;;;4.10;3.70;;;;;;;26.32;44.66;100535.30;79028;277;3026734;-77
2023/06/15 09:53:23;;;;;;;7.80;4.60;;;;;;;26.48;44.88;100533.49;78987;266;3027311;-76
2023/06/15 09:55:58;;;;;;;5.70;4.30;;;;;;;26.37;43.58;100531.94;79001;277;3027764;-76
2023/06/15 09:58:35;;;;;;;4.10;3.70;;;;;;;26.15;44.16;100534.71;79768;277;3011793;-74
2023/06/15 10:01:13;;;;;;;11.60;4.30;;;;;;;25.89;44.51;100531.98;79807;277;3011564;-76
2023/06/15 10:03:56;;;;;;;4.20;3.80;;;;;;;25.62;43.66;100532.99;78986;277;3028256;-76
2023/06/15 10:06:33;;;;;;;4.40;3.80;;;;;;;25.28;44.04;100536.13;78986;278;3026756;-73
2023/06/15 10:09:11;;;;;;;4.30;3.90;;;;;;;25.01;45.90;100532.12;78909;277;3027687;-71
2023/06/15 10:11:50;;;;;;;4.80;4.20;;;;;;;24.74;45.93;100537.89;79043;277;3027594;-73
2023/06/15 10:14:30;;;;;;;4.60;4.10;;;;;;;24.49;46.24;100541.73;78977;277;3026961;-73
2023/06/15 10:17:07;;;;;;;5.00;4.20;;;;;;;24.22;45.91;100542.80;79049;277;3027023;-72
2023/06/15 10:19:43;;;;;;;4.50;4.10;;;;;;;23.99;46.39;100542.61;79064;277;3027204;-72
2023/06/15 10:22:21;;;;;;;6.10;4.10;;;;;;;23.86;47.23;100541.41;78964;278;3026672;-73
2023/06/15 10:24:57;;;;;;;4.70;4.30;;;;;;;23.90;47.99;100542.84;78986;278;3028199;-72
2023/06/15 10:27:35;;;;;;;4.90;4.50;;;;;;;23.99;47.28;100535.95;79020;277;3026969;-73
2023/06/15 10:30:16;;;;;;;5.70;5.00;;;;;;;23.91;47.01;100538.70;78990;277;3028448;-73
2023/06/15 10:32:56;;;;;;;6.30;4.40;;;;;;;23.73;47.78;100545.08;78931;277;3027084;-73
2023/06/15 10:35:35;;;;;;;6.50;4.60;;;;;;;23.49;48.05;100544.02;78970;277;3027269;-73
2023/06/15 10:38:22;;;;;;;6.60;5.70;;;;;;;23.19;49.37;100547.58;78968;277;3027078;-73
2023/06/15 10:40:58;;;;;;;14.40;7.40;;;;;;;22.80;51.65;100551.71;78966;277;3027149;-73
2023/06/15 10:43:33;;;;;;;9.90;7.20;;;;;;;22.40;53.93;100547.30;78974;277;3027871;-73
2023/06/15 10:46:13;;;;;;;11.20;7.80;;;;;;;22.07;55.61;100551.48;79735;277;3011357;-72
2023/06/15 10:48:49;;;;;;;8.90;7.70;;;;;;;21.86;57.68;100553.89;78956;277;3027573;-73
2023/06/15 10:51:26;;;;;;;10.00;9.00;;;;;;;21.80;60.07;100552.96;79031;277;3028071;-73
2023/06/15 10:54:03;;;;;;;10.80;9.20;;;;;;;22.01;63.09;100546.26;78968;277;3027816;-74
2023/06/15 10:56:39;;;;;;;9.50;8.70;;;;;;;22.38;64.28;100543.76;79015;277;3027403;-72
2023/06/15 10:59:14;;;;;;;8.50;7.60;;;;;;;22.76;65.55;100537.84;78972;278;3028680;-73
2023/06/15 11:01:53;;;;;;;7.80;7.10;;;;;;;23.05;63.59;100533.48;78995;277;3027120;-73
2023/06/15 11:04:34;;;;;;;7.60;6.90;;;;;;;23.26;62.33;100534.55;78951;277;3028066;-73
2023/06/15 11:07:11;;;;;;;8.00;7.20;;;;;;;23.43;62.44;100532.79;78983;277;3027244;-73
2023/06/15 11:09:50;;;;;;;8.30;7.60;;;;;;;23.39;60.95;100528.03;78969;277;3028927;-72
2023/06/15 11:12:38;;;;;;;7.50;6.90;;;;;;;23.12;59.92;100529.71;79021;278;3026688;-72
2023/06/15 11:15:18;;;;;;;8.10;7.40;;;;;;;22.69;59.60;100533.40;78995;271;3026779;-72
2023/06/15 11:18:03;;;;;;;8.30;7.60;;;;;;;22.31;61.21;100534.05;78970;277;3027561;-72
2023/06/15 11:21:02;;;;;;;8.40;7.50;;;;;;;22.12;63.33;100530.77;78955;278;3027183;-73
2023/06/15 11:23:45;;;;;;;8.80;8.00;;;;;;;22.34;63.77;100527.03;78972;277;3027881;-72
2023/06/15 11:26:22;;;;;;;8.00;7.30;;;;;;;22.57;64.49;100517.93;78992;277;3026790;-72
2023/06/15 11:29:02;;;;;;;8.30;7.50;;;;;;;22.67;62.48;100525.96;78941;277;3027677;-73
2023/06/15 11:31:38;;;;;;;8.50;6.90;;;;;;;22.75;62.51;100522.58;78995;277;3029231;-73
2023/06/15 11:34:15;;;;;;;10.30;7.00;;;;;;;22.94;61.57;100521.16;78991;277;3027569;-71
2023/06/15 11:36:50;;;;;;;8.00;7.30;;;;;;;23.09;60.64;100522.64;79001;277;3027284;-72
2023/06/15 11:39:29;;;;;;;7.70;7.10;;;;;;;23.28;60.59;100519.42;78999;277;3027471;-71
2023/06/15 11:42:06;;;;;;;10.00;8.10;;;;;;;23.41;60.26;100521.56;79018;277;3026958;-71
2023/06/15 11:44:49;;;;;;;8.20;7.40;;;;;;;23.49;60.53;100525.32;78984;277;3027444;-72
2023/06/15 11:47:27;;;;;;;7.70;6.80;;;;;;;23.58;60.63;100522.20;79014;277;3027048;-72
2023/06/15 11:50:06;;;;;;;6.10;5.60;;;;;;;23.67;58.98;100526.39;78969;277;3027754;-71
2023/06/15 11:52:46;;;;;;;6.60;5.60;;;;;;;23.67;58.21;100526.62;79015;277;3026937;-71
2023/06/15 11:55:22;;;;;;;6.60;5.70;;;;;;;23.54;56.92;100528.98;79050;277;3027501;-72
2023/06/15 11:57:58;;;;;;;6.20;5.60;;;;;;;23.52;56.38;100526.17;78974;277;3026979;-72
2023/06/15 12:00:33;;;;;;;5.60;5.10;;;;;;;23.62;57.02;100526.27;79029;277;3026666;-73